createdAt,value
2019-06-01T00:10:13.171Z,98897.00
2019-06-01T00:20:55.024Z,98939.00
2019-06-01T00:31:35.018Z,98947.00
2019-06-01T00:42:13.071Z,98968.00
2019-06-01T00:52:56.030Z,99003.00
2019-06-01T01:03:38.997Z,99031.00
2019-06-01T01:14:22.204Z,99033.00
2019-06-01T01:25:03.854Z,99092.00
2019-06-01T01:35:47.529Z,99105.00
2019-06-01T01:46:31.942Z,99110.00
2019-06-01T01:57:14.681Z,99148.00
2019-06-01T02:07:55.387Z,99170.00
2019-06-01T02:18:37.846Z,99197.00
2019-06-01T02:29:20.986Z,99223.00
2019-06-01T02:40:05.520Z,99238.00
2019-06-01T02:50:47.509Z,99249.00
2019-06-01T03:01:29.594Z,99278.00
2019-06-01T03:12:11.238Z,99294.00
2019-06-01T03:22:53.362Z,99311.00
2019-06-01T03:33:35.446Z,99322.00
2019-06-01T03:44:18.649Z,99308.00
2019-06-01T03:55:00.224Z,99303.00
2019-06-01T04:05:42.304Z,99301.00
2019-06-01T04:16:22.509Z,99295.00
2019-06-01T04:27:04.044Z,99249.00
2019-06-01T04:37:42.369Z,98671.00
2019-06-01T04:48:28.405Z,98191.00
2019-06-01T04:59:13.531Z,97930.00
2019-06-01T05:09:56.788Z,97947.00
2019-06-01T05:20:37.189Z,97892.00
2019-06-01T05:31:25.048Z,97459.00
2019-06-01T05:42:02.451Z,97155.00
2019-06-01T05:52:47.829Z,96694.00
2019-06-01T06:03:40.314Z,96948.00
2019-06-01T06:14:13.375Z,97147.00
2019-06-01T06:24:55.416Z,96440.00
2019-06-01T06:35:38.721Z,96049.00
2019-06-01T06:46:24.851Z,95857.00
2019-06-01T06:57:09.278Z,95076.00
2019-06-01T07:07:50.862Z,95643.00
2019-06-01T07:18:29.572Z,96515.00
2019-06-01T07:29:03.420Z,97429.00
2019-06-01T07:39:41.842Z,97556.00
2019-06-01T07:50:21.921Z,97624.00
2019-06-01T08:01:01.753Z,97617.00
2019-06-01T08:11:42.447Z,97564.00
2019-06-01T08:22:23.906Z,97544.00
2019-06-01T08:33:05.614Z,97486.00
2019-06-01T08:43:46.780Z,97463.00
2019-06-01T08:54:28.172Z,97392.00
2019-06-01T09:05:23.264Z,97371.00
2019-06-01T09:15:52.919Z,97309.00
2019-06-01T09:26:33.868Z,97288.00
2019-06-01T09:37:16.208Z,97208.00
2019-06-01T09:47:50.795Z,97168.00
2019-06-01T09:58:32.781Z,97038.00
2019-06-01T10:09:11.906Z,97060.00
2019-06-01T10:19:53.079Z,96973.00
2019-06-01T10:30:34.119Z,96962.00
2019-06-01T10:41:09.164Z,96847.00
2019-06-01T10:51:50.336Z,96763.00
2019-06-01T11:02:32.540Z,96731.00
2019-06-01T11:13:11.389Z,96637.00
2019-06-01T11:23:52.870Z,96630.00
2019-06-01T11:34:34.155Z,96568.00
2019-06-01T11:45:16.520Z,96455.00
2019-06-01T11:55:57.568Z,96379.00
2019-06-01T12:06:37.894Z,96344.00
2019-06-01T12:49:14.409Z,96421.00
2019-06-01T12:59:56.167Z,96286.00
2019-06-01T13:10:38.320Z,96280.00
2019-06-01T13:21:20.677Z,96268.00
2019-06-01T13:32:04.702Z,96152.00
2019-06-01T13:42:32.929Z,96113.00
2019-06-01T13:53:17.914Z,95881.00
2019-06-01T14:03:58.599Z,96044.00
2019-06-01T14:14:38.594Z,96051.00
2019-06-01T14:25:15.022Z,96052.00
2019-06-01T14:35:56.775Z,95821.00
2019-06-01T14:46:52.945Z,95822.00
2019-06-01T14:57:20.711Z,95711.00
2019-06-01T15:08:04.876Z,95603.00
2019-06-01T15:18:46.047Z,95617.00
2019-06-01T15:29:24.935Z,95612.00
2019-06-01T15:40:05.855Z,95578.00
2019-06-01T15:50:45.822Z,95526.00
2019-06-01T16:01:28.789Z,95526.00
2019-06-01T16:12:08.779Z,95576.00
2019-06-01T16:22:47.066Z,95674.00
2019-06-01T16:33:27.870Z,95679.00
2019-06-01T16:44:09.012Z,95703.00
2019-06-01T16:54:51.858Z,95889.00
2019-06-01T17:05:34.823Z,95887.00
2019-06-01T17:16:16.733Z,95914.00
2019-06-01T17:27:02.139Z,95941.00
2019-06-01T17:37:46.026Z,95988.00
2019-06-01T17:48:26.935Z,96000.00
2019-06-01T17:59:05.287Z,96000.00
2019-06-01T18:09:44.746Z,95985.00
2019-06-01T18:20:18.669Z,96019.00
2019-06-01T18:30:54.678Z,96075.00
2019-06-01T18:41:36.680Z,96051.00
2019-06-01T18:52:19.287Z,96035.00
2019-06-01T19:02:52.782Z,96101.00
2019-06-01T19:13:33.104Z,96176.00
2019-06-01T19:24:10.693Z,96306.00
2019-06-01T19:34:50.992Z,96418.00
2019-06-01T19:45:30.121Z,96571.00
2019-06-01T19:56:13.470Z,96656.00
2019-06-01T20:06:46.472Z,96761.00
2019-06-01T20:17:28.820Z,96871.00
2019-06-01T20:28:01.229Z,96974.00
2019-06-01T20:52:47.691Z,97081.00
2019-06-01T21:03:25.756Z,97207.00
2019-06-01T21:14:02.600Z,97301.00
2019-06-01T21:24:44.626Z,97353.00
2019-06-01T21:35:25.688Z,97399.00
2019-06-01T21:46:07.635Z,97458.00
2019-06-01T21:56:50.943Z,97483.00
2019-06-01T22:07:31.732Z,97517.00
2019-06-01T22:18:14.726Z,97570.00
2019-06-01T22:28:50.992Z,97630.00
2019-06-01T22:39:32.991Z,97671.00
2019-06-01T22:50:13.064Z,97706.00
2019-06-01T23:00:51.844Z,97749.00
2019-06-01T23:11:31.784Z,97758.00
2019-06-01T23:22:14.754Z,97775.00
2019-06-01T23:32:53.744Z,97752.00
2019-06-01T23:43:33.001Z,97780.00
2019-06-01T23:54:11.658Z,97796.00
